Picada Cafe, Brazil
Current Conditions -  °F | °C
As of 2:00 PM on Thursday 30 Oct 2014 (Local Time) from SBCO Reporting Station
Broken Clouds Broken Clouds  
Wind Chill: 72°   Ceiling: 7000
Heat Index: 72°   Visibility: 6mi
Dew Point: 68°   Wind: 18mph
Humidity: 88%   Direction: 290°WNW
Pressure: 29.83"   Gusts: NA
Location:  29.44°S, 51.14°W
Report Text: SBCO 301600Z 29016KT 9999 SCT015 BKN070 22/20 Q1010
Loading
Personal Weather Stations






























Interactive Weather Map
Tropical Storm Tracking
New forecast layout! Learn more

10-Day Weather Forecast

Advertisements
Track Severe Weather on mobile